Time;durP1;ratioP1;P1;durP2;ratioP2;P2;SDS_P1;SDS_P2;PMS_P1;PMS_P2;Temp;Humidity;BMP_temperature;BMP_pressure;BME280_temperature;BME280_humidity;BME280_pressure;Samples;Min_cycle;Max_cycle;Signal;HPM_P1;HPM_P2
2023/09/19 00:00:31;;;;;;;0.77;0.77;;;;;;;17.78;89.93;99388.13;5031355;28;20289;-76
2023/09/19 00:02:59;;;;;;;1.33;0.90;;;;;;;17.75;89.10;99390.09;5031405;28;20216;-76
2023/09/19 00:05:27;;;;;;;2.30;1.00;;;;;;;17.86;89.47;99379.72;5031451;28;20212;-75
2023/09/19 00:07:55;;;;;;;0.97;0.77;;;;;;;17.95;88.84;99383.53;5021353;28;20245;-76
2023/09/19 00:10:24;;;;;;;0.90;0.90;;;;;;;17.99;88.54;99398.22;5011714;28;20233;-76
2023/09/19 00:12:51;;;;;;;1.20;0.80;;;;;;;17.98;87.96;99404.47;5011569;28;20214;-76
2023/09/19 00:15:18;;;;;;;1.23;1.10;;;;;;;18.03;88.36;99405.84;5011630;28;20300;-76
2023/09/19 00:17:45;;;;;;;2.40;0.80;;;;;;;18.09;88.14;99414.31;5011423;28;20228;-75
2023/09/19 00:20:13;;;;;;;0.90;0.90;;;;;;;18.14;87.47;99434.19;5011665;28;20308;-75
2023/09/19 00:22:44;;;;;;;1.10;0.90;;;;;;;17.99;88.06;99435.19;5011608;28;20208;-75
2023/09/19 00:25:11;;;;;;;1.67;1.10;;;;;;;17.84;88.09;99434.44;5011420;28;20213;-75
2023/09/19 00:27:41;;;;;;;1.83;1.10;;;;;;;17.61;89.30;99427.94;5011689;28;20214;-75
2023/09/19 00:30:14;;;;;;;1.07;0.90;;;;;;;17.62;90.31;99405.88;5022905;28;20224;-75
2023/09/19 00:32:40;;;;;;;1.20;1.10;;;;;;;17.70;90.29;99395.69;5031291;28;20240;-75
2023/09/19 00:35:09;;;;;;;1.40;1.17;;;;;;;17.41;90.81;99389.66;5030889;28;20200;-75
2023/09/19 00:37:35;;;;;;;1.40;1.30;;;;;;;17.41;90.24;99387.03;5031008;28;20295;-75
2023/09/19 00:40:05;;;;;;;3.53;1.80;;;;;;;17.57;90.17;99392.16;5030797;28;20231;-76
2023/09/19 00:42:31;;;;;;;2.03;1.77;;;;;;;17.59;89.95;99400.81;5031109;28;20237;-75
2023/09/19 00:44:58;;;;;;;2.90;1.90;;;;;;;17.58;89.70;99401.75;5030617;28;20698;-75
2023/09/19 00:47:25;;;;;;;1.83;1.73;;;;;;;17.71;89.79;99397.38;5031153;28;20219;-75
2023/09/19 00:49:52;;;;;;;2.30;2.00;;;;;;;17.84;89.08;99415.94;5031115;28;20235;-75
2023/09/19 00:52:20;;;;;;;1.60;1.50;;;;;;;17.93;88.93;99432.97;5017931;28;20248;-75
2023/09/19 00:54:47;;;;;;;1.93;1.70;;;;;;;17.92;87.41;99460.28;5010833;28;20320;-75
2023/09/19 00:57:17;;;;;;;3.37;2.00;;;;;;;17.92;87.07;99466.44;5011500;28;20210;-76
2023/09/19 00:59:43;;;;;;;2.60;1.93;;;;;;;18.00;87.55;99474.72;5013438;28;20220;-75
2023/09/19 01:02:10;;;;;;;2.53;1.70;;;;;;;17.95;87.34;99471.50;5026720;28;20200;-76
2023/09/19 01:04:37;;;;;;;3.50;2.20;;;;;;;17.92;87.60;99481.41;5034419;28;20297;-75
2023/09/19 01:07:04;;;;;;;2.27;2.07;;;;;;;17.97;87.02;99476.69;5034376;28;20205;-75
2023/09/19 01:09:30;;;;;;;3.53;2.80;;;;;;;17.72;86.76;99477.41;5034515;28;20212;-75
2023/09/19 01:12:02;;;;;;;3.53;3.10;;;;;;;17.55;88.44;99466.13;5034685;28;20228;-75
2023/09/19 01:14:38;;;;;;;4.13;2.90;;;;;;;17.56;87.63;99480.16;5034305;28;20293;-76
2023/09/19 01:17:14;;;;;;;3.70;3.40;;;;;;;17.70;87.43;99485.44;5034657;28;20209;-75
2023/09/19 01:20:11;;;;;;;3.30;2.90;;;;;;;17.55;87.97;99481.13;5034274;28;20210;-75
2023/09/19 01:22:49;;;;;;;3.43;2.87;;;;;;;17.55;87.61;99484.59;5034482;28;20214;-75
2023/09/19 01:25:34;;;;;;;4.10;2.90;;;;;;;17.71;87.71;99481.00;5034665;28;20246;-75
2023/09/19 01:28:26;;;;;;;3.87;3.40;;;;;;;17.65;87.29;99500.72;5034068;28;20210;-75
2023/09/19 01:30:58;;;;;;;3.07;2.67;;;;;;;17.77;87.16;99493.81;5034126;28;20237;-75
2023/09/19 01:33:25;;;;;;;3.10;2.80;;;;;;;17.66;86.75;99511.16;5034038;28;20230;-75
2023/09/19 01:35:52;;;;;;;4.07;2.73;;;;;;;17.70;86.64;99518.88;5033948;28;20237;-74
2023/09/19 01:38:20;;;;;;;3.00;2.70;;;;;;;17.63;86.47;99529.81;5034068;28;20247;-74
2023/09/19 01:40:58;;;;;;;3.03;2.73;;;;;;;17.67;86.36;99541.88;5033460;28;20772;-75
2023/09/19 01:43:30;;;;;;;3.40;3.10;;;;;;;17.64;86.47;99547.38;5033683;28;20228;-75
2023/09/19 01:46:06;;;;;;;3.70;3.40;;;;;;;17.46;86.80;99530.91;5033832;28;20258;-75
2023/09/19 01:48:40;;;;;;;4.67;3.37;;;;;;;17.49;86.74;99540.41;5034026;28;20219;-75
2023/09/19 01:51:08;;;;;;;3.17;2.90;;;;;;;17.34;86.37;99558.00;5033598;28;20266;-75
2023/09/19 01:53:41;;;;;;;3.97;2.93;;;;;;;17.61;85.98;99555.47;5033291;28;20945;-75
2023/09/19 01:56:12;;;;;;;3.70;2.77;;;;;;;17.35;85.97;99577.34;5033972;28;20211;-75
2023/09/19 01:58:43;;;;;;;3.73;3.10;;;;;;;17.59;85.67;99567.06;5033886;28;20215;-75
2023/09/19 02:01:17;;;;;;;4.07;2.90;;;;;;;17.50;86.35;99572.91;5033462;28;21040;-75
2023/09/19 02:03:45;;;;;;;6.47;3.30;;;;;;;17.52;86.05;99573.66;5032823;28;20294;-75
2023/09/19 02:06:15;;;;;;;4.27;3.03;;;;;;;17.54;85.94;99577.06;5033292;28;20211;-75
2023/09/19 02:08:42;;;;;;;5.53;3.23;;;;;;;17.61;85.42;99576.59;5033311;28;20200;-75
2023/09/19 02:11:08;;;;;;;4.13;3.23;;;;;;;17.49;85.04;99590.53;5013264;28;20232;-75
2023/09/19 02:13:35;;;;;;;4.80;3.10;;;;;;;17.49;84.94;99611.66;5013163;28;20204;-75
2023/09/19 02:16:02;;;;;;;4.10;3.17;;;;;;;17.51;84.86;99622.13;5013199;28;20239;-75
2023/09/19 02:18:30;;;;;;;2.80;2.60;;;;;;;17.49;84.69;99616.09;5013812;28;20235;-75
2023/09/19 02:20:58;;;;;;;4.63;3.00;;;;;;;17.53;84.59;99621.06;5013270;28;20227;-75
2023/09/19 02:23:25;;;;;;;3.30;2.97;;;;;;;17.59;84.50;99633.88;5012925;28;20205;-75
2023/09/19 02:25:56;;;;;;;3.90;3.47;;;;;;;17.59;84.32;99636.53;5013301;28;20283;-75
2023/09/19 02:28:23;;;;;;;4.53;3.30;;;;;;;17.65;83.86;99648.50;5013187;28;20293;-75
2023/09/19 02:30:50;;;;;;;5.40;3.03;;;;;;;17.63;83.60;99658.31;5013060;28;20232;-75
2023/09/19 02:33:16;;;;;;;3.70;3.40;;;;;;;17.65;83.24;99669.63;5024126;28;20211;-73
2023/09/19 02:35:44;;;;;;;3.60;3.30;;;;;;;17.51;83.20;99681.00;5032530;28;20239;-73
2023/09/19 02:38:12;;;;;;;5.07;3.13;;;;;;;17.59;83.73;99668.19;5032743;28;20207;-75
2023/09/19 02:40:38;;;;;;;4.93;3.20;;;;;;;17.40;83.10;99680.78;5032529;28;20242;-75
2023/09/19 02:43:05;;;;;;;5.17;3.50;;;;;;;17.40;83.01;99689.56;5032080;28;20546;-75
2023/09/19 02:45:32;;;;;;;8.23;3.87;;;;;;;17.34;82.50;99682.00;5032781;28;20283;-75
2023/09/19 02:47:59;;;;;;;4.43;3.73;;;;;;;17.37;82.40;99691.53;5027458;28;20212;-73
2023/09/19 02:50:25;;;;;;;7.20;3.50;;;;;;;17.34;82.69;99686.44;5029930;28;20227;-75
2023/09/19 02:52:53;;;;;;;4.50;3.63;;;;;;;17.35;83.28;99674.97;5032069;28;20593;-75
2023/09/19 02:55:21;;;;;;;5.37;3.77;;;;;;;17.33;83.18;99677.69;5024172;28;20215;-75
2023/09/19 02:57:48;;;;;;;6.23;3.97;;;;;;;17.33;83.84;99672.41;5032357;28;20214;-76
2023/09/19 03:00:16;;;;;;;4.87;3.50;;;;;;;17.41;83.88;99664.03;5032262;28;20600;-75
2023/09/19 03:02:45;;;;;;;4.83;3.57;;;;;;;17.46;83.61;99654.03;5032416;28;20585;-75
2023/09/19 03:05:12;;;;;;;4.97;3.50;;;;;;;17.61;83.47;99641.72;5032190;28;20236;-75
2023/09/19 03:07:38;;;;;;;5.40;3.80;;;;;;;17.66;83.45;99655.50;5032447;28;20209;-76
2023/09/19 03:10:08;;;;;;;4.07;2.97;;;;;;;17.65;83.16;99670.47;5022681;28;20238;-76
2023/09/19 03:12:34;;;;;;;2.97;2.63;;;;;;;17.70;83.33;99662.28;5012238;28;20699;-76
2023/09/19 03:15:01;;;;;;;3.53;3.00;;;;;;;17.71;83.18;99666.59;5012149;28;20212;-75
2023/09/19 03:17:28;;;;;;;5.13;3.57;;;;;;;17.49;82.50;99682.06;5012530;28;20207;-74
2023/09/19 03:19:54;;;;;;;3.87;3.57;;;;;;;17.34;82.89;99684.63;5028546;28;20694;-75
2023/09/19 03:22:21;;;;;;;4.00;3.17;;;;;;;17.50;83.05;99683.72;5031101;28;20295;-75
2023/09/19 03:24:47;;;;;;;3.77;3.37;;;;;;;17.26;83.49;99674.56;5031547;28;20231;-75
2023/09/19 03:27:15;;;;;;;4.70;3.37;;;;;;;17.11;82.38;99696.56;5031684;28;20210;-76
2023/09/19 03:29:42;;;;;;;4.57;4.17;;;;;;;17.03;82.06;99709.34;5031634;28;20635;-75
2023/09/19 03:32:10;;;;;;;5.23;4.73;;;;;;;17.20;81.89;99717.09;5031615;28;20228;-75
2023/09/19 03:34:37;;;;;;;5.23;4.33;;;;;;;17.26;81.34;99743.16;5031445;28;20199;-75
2023/09/19 03:37:04;;;;;;;5.03;4.73;;;;;;;16.97;81.81;99736.91;5031822;28;20285;-74
2023/09/19 03:39:30;;;;;;;4.97;4.47;;;;;;;17.07;81.83;99730.16;5031724;28;20208;-75
2023/09/19 03:41:56;;;;;;;4.47;4.07;;;;;;;17.21;81.56;99728.53;5031859;28;20204;-75
2023/09/19 03:44:24;;;;;;;4.93;4.27;;;;;;;17.09;82.08;99724.81;5023709;28;20281;-75
2023/09/19 03:46:51;;;;;;;7.07;4.40;;;;;;;16.90;82.18;99737.31;5031762;28;20239;-75
2023/09/19 03:49:17;;;;;;;6.17;4.80;;;;;;;16.81;81.11;99738.69;5031519;28;20253;-75
2023/09/19 03:51:43;;;;;;;5.43;4.50;;;;;;;16.96;81.05;99740.44;5031350;28;20698;-75
2023/09/19 03:54:10;;;;;;;6.27;5.10;;;;;;;16.70;82.11;99748.94;5030826;28;20256;-75
2023/09/19 03:56:36;;;;;;;7.57;5.10;;;;;;;16.81;81.96;99742.19;5031523;28;20223;-75
2023/09/19 03:59:03;;;;;;;6.13;5.53;;;;;;;16.75;81.60;99752.16;5031546;28;20233;-75
2023/09/19 04:01:32;;;;;;;5.70;5.03;;;;;;;16.84;81.72;99762.25;5031221;28;20780;-75
2023/09/19 04:03:58;;;;;;;7.73;5.30;;;;;;;16.99;81.13;99768.47;5031210;28;20572;-76
2023/09/19 04:06:27;;;;;;;5.90;5.40;;;;;;;16.92;81.03;99780.28;5031433;28;20213;-75
2023/09/19 04:08:54;;;;;;;6.67;5.57;;;;;;;16.99;80.67;99794.81;5031024;28;20236;-75
2023/09/19 04:11:21;;;;;;;11.83;6.83;;;;;;;16.81;80.68;99802.81;5030680;28;20254;-76
2023/09/19 04:13:48;;;;;;;6.03;5.43;;;;;;;16.63;81.61;99785.31;5031429;28;20208;-75
2023/09/19 04:16:15;;;;;;;7.80;6.00;;;;;;;16.56;82.23;99779.53;5030422;28;20253;-74
2023/09/19 04:18:43;;;;;;;6.13;5.53;;;;;;;16.79;81.64;99780.09;5025536;28;20229;-75
2023/09/19 04:21:09;;;;;;;5.70;5.10;;;;;;;16.85;81.88;99769.22;5028980;28;20221;-75
2023/09/19 04:23:36;;;;;;;5.67;5.17;;;;;;;16.88;80.97;99792.75;5031144;28;20205;-74
2023/09/19 04:26:03;;;;;;;6.97;5.60;;;;;;;16.93;80.52;99808.34;5031072;28;21085;-74
2023/09/19 04:28:30;;;;;;;6.47;5.27;;;;;;;16.94;80.31;99817.94;5031252;28;20203;-75
2023/09/19 04:30:57;;;;;;;7.47;4.97;;;;;;;17.00;79.80;99830.78;5031064;28;20604;-75
2023/09/19 04:33:24;;;;;;;8.33;5.47;;;;;;;17.10;79.58;99829.31;5032515;28;20222;-75
2023/09/19 04:35:51;;;;;;;6.43;5.53;;;;;;;17.15;78.96;99850.19;5035336;28;20206;-75
2023/09/19 04:38:18;;;;;;;5.93;5.23;;;;;;;17.16;79.35;99857.16;5035075;28;20262;-73
2023/09/19 04:40:45;;;;;;;6.70;5.20;;;;;;;16.94;78.87;99881.22;5029189;28;20266;-75
2023/09/19 04:43:12;;;;;;;5.17;4.60;;;;;;;16.93;79.39;99866.34;5015066;28;20204;-72
2023/09/19 04:45:40;;;;;;;5.40;4.90;;;;;;;16.97;79.60;99858.19;5015322;28;20206;-76
2023/09/19 04:48:08;;;;;;;7.97;4.77;;;;;;;16.86;79.42;99865.81;5016954;28;20207;-75
2023/09/19 04:50:35;;;;;;;7.87;4.80;;;;;;;17.04;79.51;99856.03;5034724;28;20769;-75
2023/09/19 04:53:03;;;;;;;4.60;4.20;;;;;;;16.86;79.99;99853.47;5034447;28;20235;-76
2023/09/19 04:55:30;;;;;;;6.67;5.27;;;;;;;16.97;80.27;99846.78;5026977;28;20202;-75
2023/09/19 04:57:56;;;;;;;5.17;4.37;;;;;;;16.91;80.31;99853.25;5027738;28;20208;-75
2023/09/19 05:00:24;;;;;;;5.20;4.63;;;;;;;16.99;79.79;99860.75;5015081;28;20232;-75
2023/09/19 05:02:51;;;;;;;5.77;4.27;;;;;;;16.94;79.96;99875.94;5015025;28;20209;-75
2023/09/19 05:05:18;;;;;;;4.70;4.20;;;;;;;16.93;79.77;99874.25;5013875;28;20311;-76
2023/09/19 05:07:46;;;;;;;5.67;4.97;;;;;;;16.97;78.90;99884.53;5015006;28;20208;-75
2023/09/19 05:10:14;;;;;;;6.50;4.10;;;;;;;16.90;79.15;99888.44;5014865;28;20828;-75
2023/09/19 05:12:41;;;;;;;5.37;4.83;;;;;;;16.73;78.69;99907.78;5014917;28;20729;-75
2023/09/19 05:15:08;;;;;;;5.93;4.57;;;;;;;16.87;78.92;99905.28;5019204;28;20213;-75
2023/09/19 05:17:36;;;;;;;4.67;4.17;;;;;;;16.97;78.33;99918.81;5037259;28;20189;-76
2023/09/19 05:20:15;;;;;;;5.67;4.27;;;;;;;16.96;78.43;99922.38;5049072;28;20226;-76
2023/09/19 05:22:42;;;;;;;6.13;4.60;;;;;;;16.88;78.28;99925.41;5054173;28;20195;-77
2023/09/19 05:25:09;;;;;;;5.03;4.57;;;;;;;16.90;79.33;99927.97;5031846;28;20209;-75
2023/09/19 05:27:37;;;;;;;6.30;4.73;;;;;;;16.81;79.30;99918.78;5027011;28;20680;-76
2023/09/19 05:30:04;;;;;;;7.03;4.80;;;;;;;16.66;79.62;99928.31;5029193;28;20227;-75
2023/09/19 05:32:31;;;;;;;6.07;5.57;;;;;;;16.39;79.13;99929.75;5025938;28;20222;-76
2023/09/19 05:34:57;;;;;;;6.83;4.50;;;;;;;16.54;79.46;99928.13;5034112;28;20202;-76
2023/09/19 05:37:26;;;;;;;6.23;4.30;;;;;;;16.16;79.04;99937.03;5034165;28;20218;-76
2023/09/19 05:39:52;;;;;;;8.00;4.80;;;;;;;16.29;78.34;99950.41;5033975;28;20265;-76
2023/09/19 05:42:19;;;;;;;7.90;4.20;;;;;;;16.21;77.78;99965.75;5024051;28;20207;-75
2023/09/19 05:44:47;;;;;;;5.27;4.57;;;;;;;16.27;77.08;99978.63;5013188;28;20213;-76
2023/09/19 05:47:13;;;;;;;5.77;4.63;;;;;;;16.21;77.63;99985.06;5013945;28;20211;-76
2023/09/19 05:49:40;;;;;;;5.80;4.57;;;;;;;16.13;77.74;99989.84;5028859;28;20242;-76
2023/09/19 05:52:07;;;;;;;7.00;5.53;;;;;;;16.37;78.47;99963.22;5033847;28;20644;-76
2023/09/19 05:54:34;;;;;;;6.87;4.53;;;;;;;16.55;78.17;99979.88;5043506;22;20237;-77
2023/09/19 05:57:01;;;;;;;5.27;4.13;;;;;;;16.33;77.53;99982.72;5049257;28;20213;-76
2023/09/19 05:59:28;;;;;;;7.40;4.33;;;;;;;16.33;77.53;100007.28;5053580;28;20226;-76
2023/09/19 06:01:56;;;;;;;4.97;4.23;;;;;;;16.13;77.13;100020.59;5053460;28;20239;-76
2023/09/19 06:04:23;;;;;;;6.07;4.10;;;;;;;16.24;76.55;100021.78;5053632;28;20277;-76
2023/09/19 06:06:49;;;;;;;4.83;3.73;;;;;;;16.13;75.99;100058.31;5053801;28;20205;-76
2023/09/19 06:09:16;;;;;;;4.07;3.67;;;;;;;16.23;76.18;100056.06;5049947;28;20211;-75
2023/09/19 06:11:42;;;;;;;5.63;3.83;;;;;;;16.32;75.86;100081.13;5047752;28;20733;-76
2023/09/19 06:14:10;;;;;;;8.53;3.93;;;;;;;16.30;75.99;100083.00;5044551;28;20228;-77
2023/09/19 06:16:38;;;;;;;4.67;3.67;;;;;;;16.33;75.60;100088.09;5053487;28;20730;-76
2023/09/19 06:19:06;;;;;;;5.50;3.80;;;;;;;16.11;76.24;100091.75;5043597;28;20244;-77
2023/09/19 06:21:33;;;;;;;7.23;3.77;;;;;;;16.25;76.33;100086.72;5036749;28;20229;-77
2023/09/19 06:24:00;;;;;;;7.90;3.90;;;;;;;16.20;75.88;100098.38;5053107;28;20550;-76
2023/09/19 06:26:26;;;;;;;8.80;3.90;;;;;;;16.16;75.83;100096.81;5053556;28;20201;-76
2023/09/19 06:28:53;;;;;;;6.27;3.80;;;;;;;16.06;75.78;100101.66;5053371;28;20209;-76
2023/09/19 06:31:22;;;;;;;5.03;4.30;;;;;;;16.21;76.04;100095.69;5053205;28;20229;-77
2023/09/19 06:33:49;;;;;;;12.27;4.13;;;;;;;16.04;75.74;100100.88;5052843;28;20596;-77
2023/09/19 06:36:17;;;;;;;12.10;5.33;;;;;;;16.20;76.08;100088.69;5053339;28;20240;-76
2023/09/19 06:38:43;;;;;;;6.33;3.53;;;;;;;16.17;75.63;100093.25;5053406;28;20214;-77
2023/09/19 06:41:10;;;;;;;6.90;4.23;;;;;;;15.97;76.59;100084.50;5053138;28;20231;-75
2023/09/19 06:43:36;;;;;;;6.40;4.33;;;;;;;16.12;76.08;100077.69;5052993;28;20197;-75
2023/09/19 06:46:03;;;;;;;5.57;4.17;;;;;;;16.13;75.75;100086.41;5052995;28;20213;-75
2023/09/19 06:48:30;;;;;;;9.30;4.03;;;;;;;16.24;76.13;100084.97;5047439;28;20206;-75
2023/09/19 06:50:58;;;;;;;6.67;3.73;;;;;;;16.14;76.14;100081.09;5032779;28;20229;-75
2023/09/19 06:53:26;;;;;;;9.77;3.60;;;;;;;16.08;76.25;100082.22;5050644;28;20714;-75
2023/09/19 06:55:53;;;;;;;6.47;3.33;;;;;;;15.96;76.46;100072.28;5052931;28;20221;-75
2023/09/19 06:58:20;;;;;;;5.23;3.17;;;;;;;16.16;76.93;100066.06;5052288;28;20209;-75
2023/09/19 07:00:47;;;;;;;7.47;3.57;;;;;;;16.24;76.10;100063.06;5052557;28;20778;-76
2023/09/19 07:03:16;;;;;;;6.07;2.57;;;;;;;16.41;75.17;100084.19;5052603;28;20221;-78
2023/09/19 07:05:42;;;;;;;4.80;2.37;;;;;;;16.44;74.24;100107.72;5037786;28;20292;-76
2023/09/19 07:08:12;;;;;;;3.30;2.03;;;;;;;16.51;74.87;100126.75;5044496;28;20300;-76
2023/09/19 07:10:41;;;;;;;6.30;2.27;;;;;;;16.38;74.40;100133.53;5049007;28;20239;-75
2023/09/19 07:13:10;;;;;;;7.20;2.53;;;;;;;16.41;74.67;100152.69;5040177;28;20634;-75
2023/09/19 07:15:39;;;;;;;5.33;2.33;;;;;;;16.59;75.40;100144.78;5048595;28;20205;-73
2023/09/19 07:18:07;;;;;;;6.40;2.53;;;;;;;16.30;74.08;100162.84;5044724;28;20209;-74
2023/09/19 07:20:34;;;;;;;5.70;2.20;;;;;;;16.57;74.28;100165.09;5032795;28;20708;-72
2023/09/19 07:23:01;;;;;;;8.60;2.07;;;;;;;16.56;73.68;100182.69;5030632;28;20213;-73
2023/09/19 07:25:27;;;;;;;7.33;2.23;;;;;;;16.56;73.60;100185.31;5032965;28;20621;-73
2023/09/19 07:27:59;;;;;;;5.87;2.23;;;;;;;16.51;74.25;100189.09;5032834;28;20667;-73
2023/09/19 07:30:26;;;;;;;5.23;1.87;;;;;;;16.72;73.74;100169.63;5031292;28;20691;-72
2023/09/19 07:32:53;;;;;;;6.73;2.83;;;;;;;16.57;72.46;100223.06;5032146;28;20735;-72
2023/09/19 07:35:20;;;;;;;4.57;1.80;;;;;;;16.53;72.44;100239.94;5032804;28;20213;-72
2023/09/19 07:37:49;;;;;;;7.53;2.20;;;;;;;16.74;72.47;100244.22;5043558;28;20210;-72
2023/09/19 07:40:15;;;;;;;5.90;2.10;;;;;;;16.59;72.79;100235.25;5051537;28;20316;-72
2023/09/19 07:42:44;;;;;;;5.63;2.37;;;;;;;16.73;72.02;100245.16;5047763;28;20198;-73
2023/09/19 07:45:14;;;;;;;8.23;1.77;;;;;;;16.88;73.00;100238.31;5039351;28;20678;-72
2023/09/19 07:47:41;;;;;;;7.40;1.80;;;;;;;16.69;70.38;100291.03;5043844;28;20201;-72
2023/09/19 07:50:07;;;;;;;5.40;1.87;;;;;;;16.61;69.95;100322.13;5032674;28;20235;-73
2023/09/19 07:52:34;;;;;;;7.40;1.97;;;;;;;16.63;71.22;100315.00;5031438;28;20210;-72
2023/09/19 07:55:01;;;;;;;7.47;1.93;;;;;;;16.82;71.80;100297.44;5045897;28;20285;-73
2023/09/19 07:57:28;;;;;;;5.10;1.77;;;;;;;16.58;70.81;100320.50;5033798;28;20303;-73
2023/09/19 07:59:55;;;;;;;4.67;1.60;;;;;;;16.71;70.99;100328.72;5040221;28;20213;-72
2023/09/19 08:02:23;;;;;;;5.10;1.93;;;;;;;16.67;72.43;100303.44;5040644;28;20207;-73
2023/09/19 08:04:49;;;;;;;4.37;1.57;;;;;;;16.77;71.84;100288.00;5042997;28;20213;-72
2023/09/19 08:07:16;;;;;;;3.27;1.40;;;;;;;16.87;71.06;100290.19;5042832;28;20205;-72
2023/09/19 08:09:46;;;;;;;6.23;2.23;;;;;;;16.90;70.67;100317.34;5026371;28;20198;-72
2023/09/19 08:12:12;;;;;;;4.70;1.93;;;;;;;16.81;70.88;100323.88;5042637;28;20734;-72
2023/09/19 08:14:41;;;;;;;5.60;1.97;;;;;;;16.89;71.08;100308.56;5050363;28;20221;-73
2023/09/19 08:17:08;;;;;;;4.67;1.70;;;;;;;17.05;70.45;100319.25;5050677;28;20205;-72
2023/09/19 08:19:36;;;;;;;3.60;1.73;;;;;;;17.02;69.37;100343.97;5036805;28;20205;-73
2023/09/19 08:22:03;;;;;;;4.93;1.53;;;;;;;16.94;69.66;100355.81;5036716;28;20469;-73
2023/09/19 08:24:30;;;;;;;5.03;1.90;;;;;;;17.15;69.98;100346.03;5042789;28;20214;-72
2023/09/19 08:26:58;;;;;;;3.23;1.53;;;;;;;16.90;68.55;100384.09;5050846;28;20210;-72
2023/09/19 08:29:27;;;;;;;3.77;2.00;;;;;;;17.12;69.70;100370.75;5051060;28;20299;-73
2023/09/19 08:31:55;;;;;;;4.20;1.93;;;;;;;17.11;68.84;100374.34;5050930;28;20303;-72
2023/09/19 08:34:23;;;;;;;4.00;1.53;;;;;;;17.19;68.76;100382.75;5042557;28;20258;-73
2023/09/19 08:36:51;;;;;;;5.10;1.63;;;;;;;17.12;68.76;100405.06;5038521;28;20202;-73
2023/09/19 08:39:19;;;;;;;7.60;1.87;;;;;;;17.15;67.11;100404.06;5039581;28;20248;-73
2023/09/19 08:41:45;;;;;;;4.50;1.53;;;;;;;17.23;68.03;100421.25;5033718;28;20776;-73
2023/09/19 08:44:12;;;;;;;8.10;2.60;;;;;;;17.38;68.49;100409.13;5050951;28;20675;-73
2023/09/19 08:46:42;;;;;;;5.90;1.90;;;;;;;17.43;68.77;100408.88;5042451;28;20681;-73
2023/09/19 08:49:20;;;;;;;6.60;1.90;;;;;;;17.66;68.06;100395.44;5039891;28;20738;-73
2023/09/19 08:51:52;;;;;;;5.90;1.73;;;;;;;17.60;67.85;100414.22;5042906;28;20221;-72
2023/09/19 08:54:26;;;;;;;5.07;1.50;;;;;;;17.70;68.36;100398.78;5043799;28;20312;-73
2023/09/19 08:56:55;;;;;;;7.00;2.30;;;;;;;17.85;67.55;100420.94;5032322;28;20206;-73
2023/09/19 08:59:25;;;;;;;6.40;1.57;;;;;;;17.52;66.54;100448.03;5039366;28;20680;-73
2023/09/19 09:01:53;;;;;;;3.33;1.33;;;;;;;17.73;66.56;100451.41;5043102;28;20249;-73
2023/09/19 09:04:20;;;;;;;3.03;1.50;;;;;;;17.57;66.10;100475.06;5042745;28;20199;-72
2023/09/19 09:06:48;;;;;;;3.60;1.57;;;;;;;17.64;65.72;100487.06;5039157;28;20695;-72
2023/09/19 09:09:15;;;;;;;3.73;1.73;;;;;;;17.78;65.85;100498.72;5041901;28;20642;-73
2023/09/19 09:11:43;;;;;;;4.10;1.63;;;;;;;17.91;65.55;100481.38;5042533;28;20285;-72
2023/09/19 09:14:11;;;;;;;3.93;1.67;;;;;;;17.88;66.18;100504.44;5050543;28;20231;-73
2023/09/19 09:16:37;;;;;;;3.33;1.67;;;;;;;17.71;64.84;100531.63;5050474;28;20294;-74
2023/09/19 09:19:05;;;;;;;6.40;1.97;;;;;;;17.93;65.46;100521.78;5050715;28;20252;-74
2023/09/19 09:21:35;;;;;;;3.97;1.47;;;;;;;17.78;64.67;100525.13;5053684;28;20232;-74
2023/09/19 09:24:27;;;;;;;5.77;1.83;;;;;;;17.84;64.51;100535.44;5054203;28;20292;-74
2023/09/19 09:26:57;;;;;;;4.50;1.40;;;;;;;17.77;64.63;100533.97;5039573;28;20290;-75
2023/09/19 09:29:41;;;;;;;5.40;1.43;;;;;;;17.91;64.13;100526.28;5054358;28;20731;-74
2023/09/19 09:32:19;;;;;;;3.93;1.50;;;;;;;17.92;64.54;100530.66;5047855;28;20229;-74
2023/09/19 09:34:46;;;;;;;5.30;1.77;;;;;;;17.78;63.85;100538.31;5044908;28;20208;-75
2023/09/19 09:37:17;;;;;;;6.43;1.70;;;;;;;18.00;64.87;100522.38;5052675;28;20228;-76
2023/09/19 09:39:51;;;;;;;2.27;1.20;;;;;;;18.12;64.48;100526.19;5053334;28;20211;-76
2023/09/19 09:42:32;;;;;;;5.00;1.70;;;;;;;17.90;62.80;100555.41;5053921;28;20326;-75
2023/09/19 09:45:14;;;;;;;3.83;1.20;;;;;;;18.21;64.23;100560.06;5054690;28;20424;-77
2023/09/19 09:47:49;;;;;;;5.47;1.90;;;;;;;18.12;63.03;100581.66;5055299;28;20198;-77
2023/09/19 09:50:29;;;;;;;3.50;1.53;;;;;;;18.41;64.69;100544.09;5055480;28;20219;-77
2023/09/19 09:53:00;;;;;;;3.20;1.13;;;;;;;18.47;64.93;100534.97;5054401;28;20204;-78
2023/09/19 09:55:27;;;;;;;5.60;1.93;;;;;;;18.35;63.03;100549.66;5054795;28;20662;-77
2023/09/19 09:58:18;;;;;;;4.90;1.60;;;;;;;18.28;63.86;100601.13;5054697;28;20207;-77
2023/09/19 10:00:57;;;;;;;4.47;1.60;;;;;;;17.95;65.04;100563.97;5055374;28;20236;-77
2023/09/19 10:03:32;;;;;;;5.53;1.70;;;;;;;18.18;65.64;100533.81;5054896;28;20208;-77
2023/09/19 10:06:02;;;;;;;5.67;1.70;;;;;;;18.43;64.80;100536.06;5055087;28;20237;-77
2023/09/19 10:08:31;;;;;;;4.50;1.60;;;;;;;18.65;65.05;100504.13;5051176;28;20208;-78
2023/09/19 10:11:05;;;;;;;4.63;2.23;;;;;;;18.71;64.73;100537.31;5054937;28;20597;-77
2023/09/19 10:13:41;;;;;;;4.93;1.73;;;;;;;18.46;64.27;100523.56;5054490;28;20232;-77
2023/09/19 10:16:10;;;;;;;4.53;2.10;;;;;;;18.46;65.04;100522.72;5054983;28;20220;-77
2023/09/19 10:18:38;;;;;;;4.00;1.33;;;;;;;18.31;62.26;100553.41;5054709;28;20628;-78
2023/09/19 10:21:07;;;;;;;4.83;1.70;;;;;;;18.45;63.75;100572.09;5054491;28;20224;-77
2023/09/19 10:23:36;;;;;;;5.10;2.17;;;;;;;18.48;63.88;100557.84;5054687;28;20204;-78
2023/09/19 10:26:04;;;;;;;6.23;2.23;;;;;;;18.61;64.18;100553.69;5046516;28;20208;-80
2023/09/19 10:28:33;;;;;;;4.80;2.00;;;;;;;18.57;63.95;100586.50;5044215;28;20208;-80
2023/09/19 10:31:01;;;;;;;7.67;1.80;;;;;;;18.55;63.25;100563.69;5048154;28;20223;-79
2023/09/19 10:33:37;;;;;;;4.40;1.70;;;;;;;18.75;63.03;100568.84;5045680;28;20594;-80
2023/09/19 10:36:05;;;;;;;4.20;1.77;;;;;;;18.82;62.93;100562.31;5046024;28;20203;-78
2023/09/19 10:38:35;;;;;;;4.87;2.07;;;;;;;18.97;61.83;100583.66;5049846;28;20204;-78
2023/09/19 10:41:03;;;;;;;3.33;1.47;;;;;;;18.89;62.31;100602.56;5049306;28;20315;-79
2023/09/19 10:43:31;;;;;;;6.07;2.20;;;;;;;19.06;62.21;100606.97;5050980;28;20693;-78
2023/09/19 10:46:03;;;;;;;5.57;2.20;;;;;;;19.01;60.46;100615.16;5054087;28;20295;-78
2023/09/19 10:48:31;;;;;;;4.23;2.10;;;;;;;19.18;60.89;100606.31;5046164;28;20213;-80
2023/09/19 10:51:04;;;;;;;5.53;2.03;;;;;;;19.20;60.72;100624.78;5038470;28;20232;-78
2023/09/19 10:53:42;;;;;;;3.97;1.73;;;;;;;18.96;60.81;100640.97;5053451;28;20266;-79
2023/09/19 10:56:14;;;;;;;4.80;2.33;;;;;;;18.97;60.46;100657.72;5043269;28;20272;-78
2023/09/19 10:58:44;;;;;;;3.37;1.90;;;;;;;19.22;61.99;100636.13;5044308;28;20287;-78
2023/09/19 11:01:14;;;;;;;8.20;2.03;;;;;;;19.29;61.81;100611.06;5045988;28;20223;-79
2023/09/19 11:03:43;;;;;;;6.33;1.83;;;;;;;19.18;61.48;100631.94;5053472;28;20482;-78
2023/09/19 11:06:13;;;;;;;8.80;2.17;;;;;;;19.22;60.46;100646.72;5048406;28;20212;-78
2023/09/19 11:09:21;;;;;;;7.13;2.60;;;;;;;19.35;60.61;100649.59;5043137;28;20288;-79
2023/09/19 11:11:53;;;;;;;3.17;2.00;;;;;;;19.15;59.75;100667.34;5053318;28;20238;-79
2023/09/19 11:14:40;;;;;;;3.40;2.00;;;;;;;19.29;59.87;100663.16;5045302;28;20768;-79
2023/09/19 11:17:37;;;;;;;3.97;2.03;;;;;;;19.42;59.21;100683.63;5049896;28;20204;-82
2023/09/19 11:23:22;;;;;;;2.93;1.77;;;;;;;19.69;58.35;100714.03;5018950;28;20220;-82
2023/09/19 11:26:02;;;;;;;4.47;1.97;;;;;;;19.58;58.17;100722.50;5056823;28;20201;-85
2023/09/19 11:28:48;;;;;;;6.33;2.30;;;;;;;19.69;57.29;100730.78;5063788;28;20213;-83
2023/09/19 11:31:55;;;;;;;4.27;2.40;;;;;;;20.09;56.82;100747.22;5053323;28;20257;-83
2023/09/19 11:34:46;;;;;;;4.07;2.23;;;;;;;20.60;57.57;100744.50;5022878;28;20221;-83
2023/09/19 11:38:10;;;;;;;3.53;2.03;;;;;;;20.63;56.48;100757.56;5041854;28;20207;-82
2023/09/19 11:40:37;;;;;;;3.03;1.63;;;;;;;21.17;55.21;100778.44;5057396;28;20229;-83
2023/09/19 11:43:30;;;;;;;4.30;2.10;;;;;;;21.45;54.56;100814.00;5041832;28;20232;-83